createdAt,value
2022-11-20T00:01:59.811Z,7.70
2022-11-20T00:07:07.285Z,7.83
2022-11-20T00:09:41.104Z,8.05
2022-11-20T00:14:49.743Z,7.78
2022-11-20T00:19:57.027Z,8.20
2022-11-20T00:25:04.369Z,9.30
2022-11-20T00:30:15.140Z,8.60
2022-11-20T00:32:49.253Z,8.13
2022-11-20T00:37:56.522Z,8.02
2022-11-20T00:40:30.329Z,8.32
2022-11-20T00:45:39.217Z,8.88
2022-11-20T00:48:13.040Z,8.65
2022-11-20T00:53:20.515Z,8.33
2022-11-20T00:55:58.680Z,8.13
2022-11-20T00:58:35.132Z,8.48
2022-11-20T01:01:10.858Z,8.20
2022-11-20T01:03:46.325Z,7.82
2022-11-20T01:06:22.046Z,8.07
2022-11-20T01:08:57.498Z,8.73
2022-11-20T01:11:32.715Z,7.68
2022-11-20T01:14:09.628Z,8.18
2022-11-20T01:16:45.474Z,8.05
2022-11-20T01:19:25.379Z,8.43
2022-11-20T01:21:59.325Z,7.75
2022-11-20T01:27:06.677Z,8.10
2022-11-20T01:32:15.421Z,7.13
2022-11-20T01:37:22.761Z,7.57
2022-11-20T01:42:47.736Z,8.50
2022-11-20T01:45:55.153Z,8.25
2022-11-20T01:48:34.389Z,9.25
2022-11-20T01:51:15.091Z,9.00
2022-11-20T01:53:50.238Z,7.78
2022-11-20T01:56:24.916Z,9.32
2022-11-20T01:59:03.632Z,7.70
2022-11-20T02:01:40.310Z,8.95
2022-11-20T02:04:15.744Z,8.95
2022-11-20T02:06:53.121Z,7.45
2022-11-20T02:09:27.485Z,8.50
2022-11-20T02:12:02.657Z,8.27
2022-11-20T02:14:35.659Z,8.63
2022-11-20T02:17:11.210Z,8.93
2022-11-20T02:19:45.177Z,8.60
2022-11-20T02:22:24.928Z,8.57
2022-11-20T02:25:03.738Z,7.55
2022-11-20T02:27:38.084Z,8.32
2022-11-20T02:30:13.729Z,8.30
2022-11-20T02:32:47.809Z,8.57
2022-11-20T02:36:02.589Z,8.43
2022-11-20T02:38:36.408Z,9.30
2022-11-20T02:43:45.181Z,8.48
2022-11-20T02:48:52.601Z,8.73
2022-11-20T02:54:00.247Z,7.23
2022-11-20T02:56:35.576Z,7.40
2022-11-20T02:59:09.503Z,9.10
2022-11-20T03:01:43.422Z,8.93
2022-11-20T03:04:17.454Z,8.43
2022-11-20T03:06:51.216Z,8.10
2022-11-20T03:09:25.048Z,8.55
2022-11-20T03:14:33.786Z,8.57
2022-11-20T03:19:41.099Z,8.23
2022-11-20T03:24:48.371Z,8.95
2022-11-20T03:29:57.047Z,8.65
2022-11-20T03:35:04.833Z,8.07
2022-11-20T03:37:38.752Z,7.85
2022-11-20T03:42:47.911Z,9.60
2022-11-20T03:45:21.781Z,8.27
2022-11-20T03:50:29.151Z,8.07
2022-11-20T03:55:36.475Z,8.45
2022-11-20T04:00:45.444Z,8.63
2022-11-20T04:03:20.226Z,8.48
2022-11-20T04:05:54.014Z,8.70
2022-11-20T04:11:11.987Z,8.75
2022-11-20T04:13:49.765Z,9.95
2022-11-20T04:16:24.876Z,8.43
2022-11-20T04:19:00.300Z,8.23
2022-11-20T04:21:34.171Z,8.45
2022-11-20T04:26:42.944Z,8.65
2022-11-20T04:29:18.393Z,8.43
2022-11-20T04:31:52.281Z,8.27
2022-11-20T04:36:59.603Z,8.70
2022-11-20T04:42:24.483Z,8.85
2022-11-20T04:45:00.030Z,9.48
2022-11-20T04:47:33.842Z,9.05
2022-11-20T04:52:42.063Z,9.88
2022-11-20T04:57:52.787Z,7.93
2022-11-20T05:00:28.006Z,7.97
2022-11-20T05:03:01.903Z,8.60
2022-11-20T05:08:09.564Z,7.82
2022-11-20T05:13:16.816Z,9.35
2022-11-20T05:18:25.765Z,8.25
2022-11-20T05:23:34.264Z,9.30
2022-11-20T05:26:09.217Z,9.43
2022-11-20T05:28:42.999Z,9.10
2022-11-20T05:34:00.813Z,9.00
2022-11-20T05:39:08.497Z,8.50
2022-11-20T05:41:42.251Z,8.30
2022-11-20T05:44:16.264Z,8.57
2022-11-20T05:46:51.545Z,8.32
2022-11-20T05:49:25.469Z,8.45
2022-11-20T05:51:59.322Z,8.00
2022-11-20T05:54:33.622Z,8.57
2022-11-20T05:57:07.393Z,8.13
2022-11-20T06:02:16.248Z,7.63
2022-11-20T06:04:50.132Z,8.68
2022-11-20T06:09:57.449Z,8.98
2022-11-20T06:15:05.149Z,8.90
2022-11-20T06:17:40.354Z,9.25
2022-11-20T06:20:14.220Z,7.57
2022-11-20T06:25:21.503Z,8.45
2022-11-20T06:30:28.841Z,8.57
2022-11-20T06:35:37.539Z,8.15
2022-11-20T06:40:45.713Z,8.07
2022-11-20T06:43:19.558Z,7.85
2022-11-20T06:48:30.874Z,8.55
2022-11-20T06:51:06.220Z,9.10
2022-11-20T06:53:40.583Z,9.18
2022-11-20T06:56:14.632Z,7.78
2022-11-20T07:01:22.152Z,8.23
2022-11-20T07:03:57.662Z,8.18
2022-11-20T07:06:31.536Z,8.50
2022-11-20T07:11:46.345Z,10.88
2022-11-20T07:16:53.821Z,12.85
2022-11-20T07:19:29.041Z,14.27
2022-11-20T07:22:02.837Z,14.18
2022-11-20T07:27:10.148Z,16.67
2022-11-20T07:32:17.489Z,16.98
2022-11-20T07:34:52.841Z,15.48
2022-11-20T07:37:26.631Z,18.02
2022-11-20T07:42:34.029Z,17.90
2022-11-20T07:45:09.947Z,17.30
2022-11-20T07:47:43.835Z,17.17
2022-11-20T07:52:53.317Z,18.65
2022-11-20T07:55:27.076Z,17.30
2022-11-20T08:00:35.007Z,16.50
2022-11-20T08:03:09.251Z,17.95
2022-11-20T08:05:44.991Z,20.23
2022-11-20T08:08:18.857Z,18.48
2022-11-20T08:13:43.472Z,37.58
2022-11-20T08:16:17.236Z,30.50
2022-11-20T08:18:51.005Z,30.50
2022-11-20T08:24:01.359Z,28.38
2022-11-20T08:29:09.028Z,24.85
2022-11-20T08:31:42.803Z,23.55
2022-11-20T08:36:54.527Z,25.23
2022-11-20T08:39:28.286Z,23.63
2022-11-20T08:42:02.078Z,24.50
2022-11-20T08:47:09.393Z,21.95
2022-11-20T08:52:18.140Z,21.25
2022-11-20T08:54:51.963Z,21.63
2022-11-20T09:00:06.090Z,21.80
2022-11-20T09:02:40.413Z,21.67
2022-11-20T09:07:49.340Z,21.77
2022-11-20T09:10:25.592Z,20.77
2022-11-20T09:12:59.923Z,20.95
2022-11-20T09:15:34.079Z,22.30
2022-11-20T09:18:07.818Z,20.48
2022-11-20T09:20:41.809Z,19.58
2022-11-20T09:23:17.339Z,20.65
2022-11-20T09:25:51.250Z,20.02
2022-11-20T09:30:58.763Z,20.25
2022-11-20T09:36:06.639Z,20.55
2022-11-20T09:38:41.919Z,18.45
2022-11-20T09:41:37.245Z,18.13
2022-11-20T09:44:19.275Z,19.27
2022-11-20T09:46:59.806Z,19.63
2022-11-20T09:49:49.662Z,19.10
2022-11-20T09:52:35.175Z,20.67
2022-11-20T09:55:13.543Z,18.85
2022-11-20T09:57:50.755Z,19.65
2022-11-20T10:00:25.009Z,19.25
2022-11-20T10:03:04.070Z,18.67
2022-11-20T10:05:45.113Z,18.80
2022-11-20T10:08:22.232Z,18.52
2022-11-20T10:11:07.021Z,19.73
2022-11-20T10:13:51.923Z,18.13
2022-11-20T10:16:40.812Z,18.50
2022-11-20T10:19:33.730Z,16.83
2022-11-20T10:22:15.395Z,18.00
2022-11-20T10:24:58.616Z,16.30
2022-11-20T10:27:53.804Z,15.73
2022-11-20T10:30:28.241Z,18.88
2022-11-20T10:33:07.004Z,18.60
2022-11-20T10:35:45.249Z,18.25
2022-11-20T10:38:24.446Z,18.17
2022-11-20T10:41:16.732Z,18.08
2022-11-20T10:43:57.288Z,16.08
2022-11-20T10:46:39.861Z,16.73
2022-11-20T10:49:16.925Z,17.48
2022-11-20T10:52:06.698Z,18.52
2022-11-20T10:54:47.401Z,17.05
2022-11-20T10:57:33.824Z,16.50
2022-11-20T11:00:13.428Z,15.80
2022-11-20T11:02:49.958Z,17.30
2022-11-20T11:05:33.748Z,16.95
2022-11-20T11:08:12.354Z,16.02
2022-11-20T11:10:53.863Z,15.73
2022-11-20T11:13:30.036Z,16.33
2022-11-20T11:16:06.136Z,17.40
2022-11-20T11:18:41.146Z,16.05
2022-11-20T11:21:15.618Z,16.60
2022-11-20T11:23:49.545Z,16.77
2022-11-20T11:26:25.231Z,15.73
2022-11-20T11:29:00.650Z,17.40
2022-11-20T11:31:37.446Z,16.95
2022-11-20T11:34:16.066Z,16.88
2022-11-20T11:36:57.746Z,16.60
2022-11-20T11:39:34.984Z,16.67
2022-11-20T11:42:13.833Z,15.45
2022-11-20T11:45:06.359Z,17.33
2022-11-20T11:47:48.440Z,15.15
2022-11-20T11:50:24.256Z,16.67
2022-11-20T11:53:07.134Z,14.73
2022-11-20T11:55:46.177Z,15.77
2022-11-20T11:58:36.919Z,15.20
2022-11-20T12:01:23.075Z,16.17
2022-11-20T12:04:07.415Z,15.70
2022-11-20T12:06:45.450Z,15.50
2022-11-20T12:09:22.784Z,15.00
2022-11-20T12:12:01.342Z,16.08
2022-11-20T12:14:39.159Z,15.68
2022-11-20T12:17:14.715Z,16.13
2022-11-20T12:19:50.314Z,15.45
2022-11-20T12:22:33.318Z,15.40
2022-11-20T12:25:11.289Z,14.98
2022-11-20T12:27:56.480Z,14.73
2022-11-20T12:30:30.425Z,15.70
2022-11-20T12:33:15.268Z,15.38
2022-11-20T12:36:10.163Z,14.15
2022-11-20T12:39:17.443Z,15.07
2022-11-20T12:42:31.310Z,15.98
2022-11-20T12:45:15.574Z,14.18
2022-11-20T12:48:02.606Z,15.77
2022-11-20T12:51:13.587Z,14.88
2022-11-20T12:53:53.152Z,14.48
2022-11-20T12:56:39.669Z,15.52
2022-11-20T12:59:32.666Z,15.63
2022-11-20T13:02:26.539Z,15.88
2022-11-20T13:05:18.529Z,14.70
2022-11-20T13:07:55.795Z,16.08
2022-11-20T13:10:37.770Z,14.27
2022-11-20T13:13:18.590Z,16.05
2022-11-20T13:15:58.618Z,15.63
2022-11-20T13:18:40.517Z,15.15
2022-11-20T13:21:19.451Z,15.15
2022-11-20T13:23:53.359Z,15.23
2022-11-20T13:26:29.441Z,15.18
2022-11-20T13:29:11.324Z,14.30
2022-11-20T13:31:47.978Z,16.38
2022-11-20T13:34:27.713Z,15.20
2022-11-20T13:37:04.888Z,15.93
2022-11-20T13:39:39.572Z,16.65
2022-11-20T13:42:29.889Z,16.27
2022-11-20T13:45:12.688Z,15.05
2022-11-20T13:47:51.545Z,16.75
2022-11-20T13:50:45.810Z,16.17
2022-11-20T13:53:44.640Z,16.77
2022-11-20T13:56:27.029Z,16.73
2022-11-20T13:59:14.913Z,16.80
2022-11-20T14:01:49.545Z,15.50
2022-11-20T14:04:29.430Z,16.52
2022-11-20T14:07:03.476Z,17.75
2022-11-20T14:09:37.758Z,15.82
2022-11-20T14:12:20.034Z,15.38
2022-11-20T14:14:57.084Z,14.85
2022-11-20T14:17:34.193Z,15.35
2022-11-20T14:20:14.460Z,15.02
2022-11-20T14:22:52.063Z,15.68
2022-11-20T14:25:29.040Z,14.93
2022-11-20T14:28:04.938Z,14.77
2022-11-20T14:30:45.806Z,15.82
2022-11-20T14:33:21.032Z,16.27
2022-11-20T14:35:57.182Z,15.45
2022-11-20T14:38:34.399Z,15.25
2022-11-20T14:41:09.493Z,14.95
2022-11-20T14:43:49.092Z,15.90
2022-11-20T14:46:25.317Z,15.55
2022-11-20T14:49:02.574Z,15.65
2022-11-20T14:51:42.409Z,14.93
2022-11-20T14:54:18.346Z,15.52
2022-11-20T14:56:57.408Z,15.48
2022-11-20T14:59:33.145Z,15.25
2022-11-20T15:02:12.261Z,14.18
2022-11-20T15:04:50.051Z,14.95
2022-11-20T15:07:29.408Z,14.77
2022-11-20T15:10:08.240Z,15.32
2022-11-20T15:12:50.037Z,16.08
2022-11-20T15:15:27.885Z,15.00
2022-11-20T15:18:03.590Z,16.35
2022-11-20T15:20:39.024Z,15.70
2022-11-20T15:23:14.710Z,17.25
2022-11-20T15:25:49.896Z,15.30
2022-11-20T15:28:29.778Z,15.63
2022-11-20T15:31:04.272Z,15.55
2022-11-20T15:33:39.960Z,14.73
2022-11-20T15:36:14.196Z,14.82
2022-11-20T15:38:48.470Z,15.32
2022-11-20T15:41:22.508Z,15.13
2022-11-20T15:43:56.424Z,14.68
2022-11-20T15:49:08.390Z,13.43
2022-11-20T15:51:45.414Z,13.15
2022-11-20T15:54:22.686Z,12.30
2022-11-20T15:56:57.331Z,11.57
2022-11-20T15:59:31.524Z,11.90
2022-11-20T16:02:07.873Z,11.98
2022-11-20T16:04:44.085Z,12.50
2022-11-20T16:07:18.277Z,12.57
2022-11-20T16:09:52.169Z,12.40
2022-11-20T16:15:30.900Z,10.50
2022-11-20T16:18:05.062Z,12.18
2022-11-20T16:20:40.865Z,11.98
2022-11-20T16:23:16.643Z,13.15
2022-11-20T16:25:51.334Z,11.73
2022-11-20T16:28:25.388Z,12.10
2022-11-20T16:30:59.677Z,12.15
2022-11-20T16:33:33.618Z,12.00
2022-11-20T16:38:47.091Z,11.95
2022-11-20T16:41:21.365Z,11.80
2022-11-20T16:43:59.428Z,11.52
2022-11-20T16:46:34.446Z,12.43
2022-11-20T16:49:12.684Z,13.18
2022-11-20T16:51:48.295Z,13.60
2022-11-20T16:54:22.614Z,12.25
2022-11-20T16:56:57.151Z,11.20
2022-11-20T17:02:05.180Z,12.75
2022-11-20T17:04:39.603Z,12.93
2022-11-20T17:07:15.011Z,13.45
2022-11-20T17:09:50.441Z,12.88
2022-11-20T17:12:24.349Z,13.57
2022-11-20T17:17:32.266Z,12.32
2022-11-20T17:22:41.945Z,13.43
2022-11-20T17:25:16.210Z,12.70
2022-11-20T17:27:50.376Z,11.90
2022-11-20T17:30:24.675Z,11.20
2022-11-20T17:32:58.689Z,11.50
2022-11-20T17:35:32.630Z,12.43
2022-11-20T17:38:07.976Z,12.15
2022-11-20T17:40:42.602Z,11.65
2022-11-20T17:43:16.810Z,11.77
2022-11-20T17:45:50.733Z,11.02
2022-11-20T17:48:24.921Z,11.48
2022-11-20T17:51:02.375Z,12.40
2022-11-20T17:53:39.615Z,12.05
2022-11-20T17:56:31.484Z,11.98
2022-11-20T17:59:06.841Z,11.60
2022-11-20T18:01:43.154Z,13.07
2022-11-20T18:04:17.186Z,11.48
2022-11-20T18:06:51.035Z,11.57
2022-11-20T18:12:00.983Z,11.70
2022-11-20T18:14:36.776Z,12.65
2022-11-20T18:17:12.264Z,12.10
2022-11-20T18:20:14.327Z,11.98
2022-11-20T18:22:44.901Z,11.75
2022-11-20T18:25:20.083Z,12.60
2022-11-20T18:27:53.910Z,13.63
2022-11-20T18:33:01.581Z,12.50
2022-11-20T18:35:35.697Z,12.13
2022-11-20T18:38:09.597Z,13.18
2022-11-20T18:43:36.549Z,13.00
2022-11-20T18:46:10.507Z,12.77
2022-11-20T18:48:44.694Z,13.43
2022-11-20T18:51:20.462Z,13.23
2022-11-20T18:53:54.324Z,12.60
2022-11-20T18:59:03.778Z,12.50
2022-11-20T19:01:38.431Z,13.32
2022-11-20T19:04:14.115Z,13.27
2022-11-20T19:06:50.523Z,13.95
2022-11-20T19:09:25.507Z,12.60
2022-11-20T19:12:01.168Z,12.93
2022-11-20T19:14:35.459Z,11.95
2022-11-20T19:17:11.182Z,12.75
2022-11-20T19:19:45.839Z,12.93
2022-11-20T19:22:19.973Z,12.52
2022-11-20T19:24:54.246Z,13.02
2022-11-20T19:27:29.559Z,13.07
2022-11-20T19:30:03.938Z,13.18
2022-11-20T19:32:38.447Z,13.30
2022-11-20T19:35:13.649Z,12.75
2022-11-20T19:37:47.568Z,12.02
2022-11-20T19:42:57.069Z,15.23
2022-11-20T19:45:31.321Z,12.25
2022-11-20T19:50:42.305Z,13.35
2022-11-20T19:53:16.441Z,12.43
2022-11-20T19:55:59.862Z,13.18
2022-11-20T19:58:37.908Z,12.98
2022-11-20T20:01:14.405Z,13.40
2022-11-20T20:03:49.195Z,15.70
2022-11-20T20:06:24.912Z,19.08
2022-11-20T20:09:00.229Z,18.55
2022-11-20T20:11:35.412Z,18.00
2022-11-20T20:14:14.926Z,19.75
2022-11-20T20:16:48.765Z,22.10
2022-11-20T20:21:57.032Z,22.77
2022-11-20T20:24:31.029Z,22.13
2022-11-20T20:27:04.883Z,23.42
2022-11-20T20:29:40.439Z,23.67
2022-11-20T20:32:14.312Z,24.08
2022-11-20T20:34:48.285Z,24.05
2022-11-20T20:37:22.231Z,22.38
2022-11-20T20:39:56.245Z,23.75
2022-11-20T20:42:31.947Z,25.85
2022-11-20T20:45:08.304Z,22.83
2022-11-20T20:47:43.302Z,26.10
2022-11-20T20:50:17.299Z,26.70
2022-11-20T20:52:51.314Z,22.63
2022-11-20T20:55:25.762Z,27.17
2022-11-20T20:57:59.668Z,26.35
2022-11-20T21:03:08.660Z,27.30
2022-11-20T21:05:42.545Z,25.90
2022-11-20T21:08:25.703Z,26.40
2022-11-20T21:11:03.881Z,25.77
2022-11-20T21:13:39.183Z,22.88
2022-11-20T21:16:15.959Z,23.00
2022-11-20T21:18:50.077Z,22.73
2022-11-20T21:21:41.402Z,22.85
2022-11-20T21:24:15.465Z,22.85
2022-11-20T21:26:49.791Z,21.30
2022-11-20T21:29:25.515Z,20.63
2022-11-20T21:32:00.907Z,25.02
2022-11-20T21:34:35.030Z,23.88
2022-11-20T21:37:08.973Z,24.90
2022-11-20T21:42:25.098Z,24.60
2022-11-20T21:44:59.132Z,25.63
2022-11-20T21:47:36.162Z,25.50
2022-11-20T21:50:10.813Z,25.80
2022-11-20T21:52:44.842Z,27.65
2022-11-20T21:55:19.065Z,26.75
2022-11-20T21:57:52.938Z,24.65
2022-11-20T22:03:01.829Z,27.25
2022-11-20T22:05:35.667Z,29.48
2022-11-20T22:10:43.201Z,26.58
2022-11-20T22:16:08.094Z,28.65
2022-11-20T22:18:46.174Z,27.13
2022-11-20T22:21:21.936Z,29.65
2022-11-20T22:23:56.411Z,26.50
2022-11-20T22:26:36.169Z,27.85
2022-11-20T22:29:16.302Z,29.08
2022-11-20T22:31:52.640Z,27.63
2022-11-20T22:34:27.933Z,27.60
2022-11-20T22:37:05.722Z,29.38
2022-11-20T22:39:39.587Z,28.40
2022-11-20T22:44:47.124Z,28.43
2022-11-20T22:47:21.028Z,26.92
2022-11-20T22:50:01.500Z,26.20
2022-11-20T22:52:35.407Z,27.95
2022-11-20T22:57:52.860Z,24.65
2022-11-20T23:00:27.032Z,26.55
2022-11-20T23:03:01.043Z,24.95
2022-11-20T23:05:36.397Z,23.88
2022-11-20T23:08:10.267Z,24.65
2022-11-20T23:10:44.127Z,25.00
2022-11-20T23:13:18.130Z,24.00
2022-11-20T23:15:51.966Z,23.75
2022-11-20T23:21:05.720Z,23.63
2022-11-20T23:23:39.800Z,23.13
2022-11-20T23:26:14.978Z,20.70
2022-11-20T23:28:48.992Z,21.52
2022-11-20T23:31:23.412Z,21.27
2022-11-20T23:33:57.599Z,21.30
2022-11-20T23:36:35.603Z,21.13
2022-11-20T23:39:10.361Z,20.63
2022-11-20T23:41:44.745Z,18.60
2022-11-20T23:44:19.711Z,18.15
2022-11-20T23:46:53.541Z,19.33
2022-11-20T23:52:03.197Z,18.63
2022-11-20T23:54:39.601Z,18.88
2022-11-20T23:57:13.599Z,19.15
2022-11-20T23:59:47.694Z,18.42
